createdAt,value
2022-12-18T00:00:27.261Z,35.33
2022-12-18T00:03:16.308Z,31.63
2022-12-18T00:05:50.046Z,32.30
2022-12-18T00:08:19.843Z,37.97
2022-12-18T00:10:48.196Z,32.03
2022-12-18T00:13:16.392Z,32.90
2022-12-18T00:15:44.525Z,33.55
2022-12-18T00:18:16.077Z,29.85
2022-12-18T00:20:49.510Z,35.22
2022-12-18T00:23:22.504Z,36.50
2022-12-18T00:25:51.116Z,30.02
2022-12-18T00:28:19.436Z,32.33
2022-12-18T00:30:52.375Z,31.77
2022-12-18T00:33:20.104Z,34.10
2022-12-18T00:35:48.152Z,32.72
2022-12-18T00:38:15.868Z,33.88
2022-12-18T00:40:45.442Z,35.58
2022-12-18T00:43:14.197Z,31.08
2022-12-18T00:45:44.553Z,32.72
2022-12-18T00:48:13.256Z,36.58
2022-12-18T00:50:41.575Z,32.72
2022-12-18T00:53:13.381Z,31.05
2022-12-18T00:55:42.554Z,28.98
2022-12-18T00:58:16.962Z,32.83
2022-12-18T01:00:45.646Z,30.95
2022-12-18T01:03:15.471Z,34.67
2022-12-18T01:05:45.991Z,32.45
2022-12-18T01:08:13.774Z,32.03
2022-12-18T01:10:45.106Z,31.67
2022-12-18T01:13:13.828Z,36.58
2022-12-18T01:15:50.157Z,31.17
2022-12-18T01:18:19.515Z,36.25
2022-12-18T01:20:49.759Z,34.75
2022-12-18T01:23:17.530Z,29.13
2022-12-18T01:25:45.688Z,31.17
2022-12-18T01:28:15.900Z,34.28
2022-12-18T01:30:44.949Z,24.45
2022-12-18T01:33:13.260Z,29.55
2022-12-18T01:35:44.846Z,31.88
2022-12-18T01:38:13.539Z,35.22
2022-12-18T01:40:42.498Z,32.05
2022-12-18T01:43:12.290Z,28.10
2022-12-18T01:45:40.565Z,27.58
2022-12-18T01:48:10.187Z,31.00
2022-12-18T01:50:43.937Z,31.70
2022-12-18T01:53:17.985Z,27.58
2022-12-18T01:55:57.341Z,32.33
2022-12-18T01:58:34.674Z,29.73
2022-12-18T02:01:02.846Z,28.23
2022-12-18T02:03:34.312Z,30.42
2022-12-18T02:06:13.310Z,26.63
2022-12-18T02:08:54.439Z,28.98
2022-12-18T02:14:31.253Z,28.38
2022-12-18T02:17:14.439Z,26.17
2022-12-18T02:20:03.844Z,25.63
2022-12-18T02:22:47.184Z,25.20
2022-12-18T02:25:29.400Z,31.35
2022-12-18T02:28:01.456Z,27.25
2022-12-18T02:30:34.820Z,28.63
2022-12-18T02:33:05.906Z,24.63
2022-12-18T02:38:05.345Z,25.77
2022-12-18T02:40:38.229Z,26.02
2022-12-18T02:43:13.508Z,26.60
2022-12-18T02:45:57.314Z,29.23
2022-12-18T02:48:32.162Z,32.33
2022-12-18T02:51:22.952Z,32.65
2022-12-18T02:54:08.028Z,26.60
2022-12-18T02:56:52.803Z,25.52
2022-12-18T02:59:39.944Z,27.65
2022-12-18T03:02:17.518Z,23.25
2022-12-18T03:04:54.724Z,21.42
2022-12-18T03:07:35.841Z,25.42
2022-12-18T03:10:07.341Z,26.17
2022-12-18T03:12:45.318Z,25.33
2022-12-18T03:15:31.305Z,26.10
2022-12-18T03:18:34.557Z,25.95
2022-12-18T03:21:07.236Z,25.17
2022-12-18T03:23:47.978Z,26.70
2022-12-18T03:26:28.267Z,29.73
2022-12-18T03:29:16.476Z,24.77
2022-12-18T03:31:52.672Z,23.45
2022-12-18T03:34:31.951Z,25.35
2022-12-18T03:37:04.159Z,25.95
2022-12-18T03:39:34.688Z,24.40
2022-12-18T03:42:26.299Z,25.05
2022-12-18T03:45:20.800Z,23.38
2022-12-18T03:48:02.814Z,24.63
2022-12-18T03:50:58.295Z,23.02
2022-12-18T03:53:42.825Z,24.85
2022-12-18T03:56:14.537Z,30.52
2022-12-18T03:58:44.840Z,20.27
2022-12-18T04:01:32.009Z,23.52
2022-12-18T04:04:04.093Z,26.25
2022-12-18T04:06:36.579Z,20.83
2022-12-18T04:09:06.217Z,23.98
2022-12-18T04:11:38.645Z,21.85
2022-12-18T04:14:09.919Z,27.00
2022-12-18T04:16:40.331Z,26.38
2022-12-18T04:19:11.782Z,25.90
2022-12-18T04:21:43.434Z,27.13
2022-12-18T04:24:13.479Z,22.50
2022-12-18T04:26:47.773Z,23.30
2022-12-18T04:29:19.272Z,22.48
2022-12-18T04:31:47.627Z,26.45
2022-12-18T04:34:15.739Z,27.42
2022-12-18T04:36:50.165Z,25.17
2022-12-18T04:39:19.288Z,26.52
2022-12-18T04:41:49.879Z,32.80
2022-12-18T04:44:18.038Z,28.17
2022-12-18T04:46:46.785Z,32.83
2022-12-18T04:49:15.565Z,29.70
2022-12-18T04:51:43.867Z,30.92
2022-12-18T04:54:12.354Z,29.15
2022-12-18T04:56:40.794Z,27.30
2022-12-18T04:59:08.777Z,27.50
2022-12-18T05:01:36.999Z,26.90
2022-12-18T05:04:05.537Z,31.65
2022-12-18T05:06:34.615Z,27.23
2022-12-18T05:09:02.838Z,28.35
2022-12-18T05:11:31.180Z,29.88
2022-12-18T05:13:59.695Z,28.45
2022-12-18T05:16:27.928Z,29.42
2022-12-18T05:18:56.497Z,31.52
2022-12-18T05:21:24.286Z,21.45
2022-12-18T05:23:52.852Z,28.10
2022-12-18T05:26:21.115Z,26.88
2022-12-18T05:28:49.687Z,30.73
2022-12-18T05:31:18.115Z,26.55
2022-12-18T05:33:46.336Z,28.15
2022-12-18T05:36:14.139Z,24.80
2022-12-18T05:38:42.598Z,25.40
2022-12-18T05:41:13.209Z,30.77
2022-12-18T05:43:42.151Z,27.42
2022-12-18T05:46:15.220Z,27.30
2022-12-18T05:48:44.859Z,30.05
2022-12-18T05:51:15.587Z,27.63
2022-12-18T05:53:44.014Z,28.55
2022-12-18T05:56:15.719Z,28.48
2022-12-18T05:58:44.567Z,26.48
2022-12-18T06:01:18.255Z,29.58
2022-12-18T06:03:47.069Z,30.33
2022-12-18T06:06:18.943Z,27.30
2022-12-18T06:08:49.169Z,28.30
2022-12-18T06:11:26.937Z,34.80
2022-12-18T06:13:58.907Z,29.60
2022-12-18T06:16:28.455Z,27.17
2022-12-18T06:19:01.148Z,29.95
2022-12-18T06:21:29.865Z,27.27
2022-12-18T06:23:59.270Z,31.23
2022-12-18T06:26:28.482Z,23.13
2022-12-18T06:28:59.690Z,27.50
2022-12-18T06:31:30.274Z,33.05
2022-12-18T06:33:59.192Z,22.67
2022-12-18T06:36:27.426Z,26.73
2022-12-18T06:38:55.712Z,28.60
2022-12-18T06:41:24.032Z,26.05
2022-12-18T06:43:56.747Z,24.05
2022-12-18T06:46:26.557Z,30.67
2022-12-18T06:48:55.016Z,23.85
2022-12-18T06:51:25.563Z,23.00
2022-12-18T06:53:53.559Z,27.63
2022-12-18T06:56:21.800Z,25.40
2022-12-18T07:01:20.911Z,23.42
2022-12-18T07:03:54.448Z,28.35
2022-12-18T07:06:25.174Z,30.85
2022-12-18T07:08:55.788Z,27.70
2022-12-18T07:11:23.659Z,26.33
2022-12-18T07:13:53.202Z,25.38
2022-12-18T07:16:25.271Z,27.13
2022-12-18T07:18:56.438Z,25.38
2022-12-18T07:21:25.580Z,26.20
2022-12-18T07:23:53.736Z,27.38
2022-12-18T07:26:22.429Z,26.70
2022-12-18T07:28:58.680Z,23.98
2022-12-18T07:31:28.245Z,25.67
2022-12-18T07:33:56.524Z,28.92
2022-12-18T07:36:24.430Z,25.80
2022-12-18T07:38:53.863Z,22.10
2022-12-18T07:41:22.012Z,23.15
2022-12-18T07:43:50.199Z,26.35
2022-12-18T07:46:18.335Z,25.40
2022-12-18T07:48:49.699Z,28.08
2022-12-18T07:51:19.656Z,25.73
2022-12-18T07:53:49.679Z,23.58
2022-12-18T07:56:30.800Z,22.35
2022-12-18T07:59:00.554Z,28.00
2022-12-18T08:01:29.272Z,25.40
2022-12-18T08:03:58.748Z,30.00
2022-12-18T08:06:29.139Z,25.90
2022-12-18T08:08:57.794Z,26.00
2022-12-18T08:11:27.410Z,26.83
2022-12-18T08:13:56.868Z,23.52
2022-12-18T08:16:24.733Z,26.13
2022-12-18T08:18:53.770Z,26.80
2022-12-18T08:21:25.117Z,28.63
2022-12-18T08:23:56.070Z,26.65
2022-12-18T08:26:25.765Z,26.20
2022-12-18T08:28:56.250Z,28.08
2022-12-18T08:31:28.586Z,26.15
2022-12-18T08:33:57.653Z,27.33
2022-12-18T08:36:26.229Z,24.42
2022-12-18T08:38:55.203Z,29.35
2022-12-18T08:41:23.601Z,28.83
2022-12-18T08:44:10.724Z,25.38
2022-12-18T08:46:41.461Z,25.38
2022-12-18T08:49:11.402Z,25.47
2022-12-18T08:51:40.814Z,27.30
2022-12-18T08:54:14.900Z,26.15
2022-12-18T08:56:43.164Z,26.30
2022-12-18T08:59:15.965Z,27.85
2022-12-18T09:01:48.384Z,30.60
2022-12-18T09:04:17.222Z,28.05
2022-12-18T09:06:46.861Z,29.05
2022-12-18T09:09:14.955Z,26.10
2022-12-18T09:11:43.636Z,29.10
2022-12-18T09:14:12.382Z,28.85
2022-12-18T09:16:40.490Z,27.25
2022-12-18T09:19:10.171Z,28.63
2022-12-18T09:21:42.245Z,28.33
2022-12-18T09:24:15.240Z,30.45
2022-12-18T09:26:46.885Z,22.60
2022-12-18T09:29:18.948Z,27.10
2022-12-18T09:31:47.633Z,28.08
2022-12-18T09:34:15.456Z,25.20
2022-12-18T09:36:46.340Z,29.88
2022-12-18T09:39:15.835Z,26.00
2022-12-18T09:41:57.934Z,25.63
2022-12-18T09:44:45.754Z,26.90
2022-12-18T09:47:25.754Z,31.55
2022-12-18T09:50:10.522Z,27.10
2022-12-18T09:52:47.670Z,29.67
2022-12-18T09:55:35.112Z,25.77
2022-12-18T09:58:11.329Z,27.95
2022-12-18T10:00:43.722Z,21.95
2022-12-18T10:03:15.851Z,25.08
2022-12-18T10:06:16.543Z,28.40
2022-12-18T10:08:44.630Z,24.73
2022-12-18T10:11:34.079Z,26.25
2022-12-18T10:14:35.176Z,27.90
2022-12-18T10:17:22.491Z,21.38
2022-12-18T10:20:23.905Z,28.17
2022-12-18T10:22:57.797Z,23.13
2022-12-18T10:25:40.117Z,26.83
2022-12-18T10:28:15.353Z,24.83
2022-12-18T10:30:44.532Z,22.33
2022-12-18T10:33:22.054Z,26.02
2022-12-18T10:35:52.246Z,21.92
2022-12-18T10:38:20.277Z,22.73
2022-12-18T10:41:05.591Z,23.95
2022-12-18T10:43:37.863Z,22.02
2022-12-18T10:46:18.787Z,24.98
2022-12-18T10:48:49.964Z,19.63
2022-12-18T10:51:23.268Z,25.17
2022-12-18T10:54:22.317Z,25.33
2022-12-18T10:56:50.761Z,20.55
2022-12-18T10:59:19.880Z,23.92
2022-12-18T11:01:50.929Z,19.80
2022-12-18T11:04:31.283Z,24.00
2022-12-18T11:07:05.671Z,24.30
2022-12-18T11:09:35.268Z,26.80
2022-12-18T11:12:20.130Z,20.88
2022-12-18T11:14:51.587Z,28.08
2022-12-18T11:17:32.699Z,24.10
2022-12-18T11:20:04.355Z,23.17
2022-12-18T11:28:00.516Z,27.13
2022-12-18T11:30:39.157Z,28.38
2022-12-18T11:33:19.883Z,25.08
2022-12-18T11:35:58.869Z,29.00
2022-12-18T11:38:40.644Z,25.08
2022-12-18T11:41:50.305Z,23.13
2022-12-18T11:44:33.716Z,29.75
2022-12-18T11:47:09.471Z,26.80
2022-12-18T11:49:41.817Z,27.73
2022-12-18T11:52:32.627Z,25.05
2022-12-18T11:55:06.640Z,26.27
2022-12-18T11:57:56.240Z,26.65
2022-12-18T12:00:24.915Z,26.00
2022-12-18T12:03:25.209Z,24.63
2022-12-18T12:06:19.077Z,25.05
2022-12-18T12:08:59.459Z,25.95
2022-12-18T12:11:51.669Z,23.88
2022-12-18T12:14:48.164Z,26.02
2022-12-18T12:17:35.471Z,25.05
2022-12-18T12:20:26.023Z,26.58
2022-12-18T12:23:27.948Z,22.67
2022-12-18T12:26:37.454Z,24.92
2022-12-18T12:29:29.147Z,20.23
2022-12-18T12:32:00.922Z,23.70
2022-12-18T12:35:01.004Z,28.13
2022-12-18T12:37:33.880Z,22.77
2022-12-18T12:40:15.327Z,24.05
2022-12-18T12:43:14.586Z,24.35
2022-12-18T12:46:02.283Z,22.42
2022-12-18T12:48:51.205Z,24.85
2022-12-18T12:51:26.050Z,25.38
2022-12-18T12:53:57.664Z,21.55
2022-12-18T12:56:36.833Z,22.50
2022-12-18T12:59:28.141Z,30.30
2022-12-18T13:02:11.745Z,28.35
2022-12-18T13:04:58.965Z,24.63
2022-12-18T13:07:42.152Z,23.80
2022-12-18T13:10:23.801Z,22.67
2022-12-18T13:12:58.199Z,25.13
2022-12-18T13:15:42.392Z,25.13
2022-12-18T13:18:10.389Z,22.73
2022-12-18T13:20:41.559Z,25.55
2022-12-18T13:25:58.749Z,20.23
2022-12-18T13:28:49.083Z,20.38
2022-12-18T13:31:42.564Z,19.08
2022-12-18T13:34:26.252Z,19.35
2022-12-18T13:37:00.523Z,21.25
2022-12-18T13:39:35.964Z,22.02
2022-12-18T13:42:07.588Z,21.92
2022-12-18T13:44:43.072Z,19.40
2022-12-18T13:47:41.121Z,19.20
2022-12-18T13:50:28.588Z,17.35
2022-12-18T13:53:00.791Z,19.73
2022-12-18T13:55:30.267Z,19.02
2022-12-18T13:58:07.713Z,18.35
2022-12-18T14:00:43.198Z,17.20
2022-12-18T14:03:27.091Z,14.60
2022-12-18T14:06:05.754Z,14.90
2022-12-18T14:08:41.527Z,18.08
2022-12-18T14:11:23.277Z,17.45
2022-12-18T14:13:51.641Z,19.85
2022-12-18T14:16:20.438Z,18.23
2022-12-18T14:19:05.000Z,18.70
2022-12-18T14:21:48.928Z,13.88
2022-12-18T14:24:26.214Z,16.65
2022-12-18T14:26:54.793Z,14.15
2022-12-18T14:29:31.989Z,16.17
2022-12-18T14:32:21.146Z,18.13
2022-12-18T14:34:51.480Z,17.58
2022-12-18T14:37:34.505Z,19.80
2022-12-18T14:40:11.414Z,16.95
2022-12-18T14:42:41.919Z,18.20
2022-12-18T14:45:47.281Z,13.95
2022-12-18T14:48:43.649Z,16.08
2022-12-18T14:51:18.163Z,13.80
2022-12-18T14:54:03.026Z,16.27
2022-12-18T14:56:37.059Z,15.60
2022-12-18T14:59:25.726Z,14.48
2022-12-18T15:02:06.126Z,17.00
2022-12-18T15:04:43.660Z,14.18
2022-12-18T15:07:17.609Z,15.02
2022-12-18T15:10:11.733Z,13.82
2022-12-18T15:12:42.772Z,14.30
2022-12-18T15:15:38.904Z,12.85
2022-12-18T15:18:12.166Z,15.63
2022-12-18T15:21:41.114Z,16.00
2022-12-18T15:24:49.484Z,17.30
2022-12-18T15:27:42.008Z,13.88
2022-12-18T15:30:38.657Z,13.82
2022-12-18T15:33:48.700Z,14.85
2022-12-18T15:36:39.332Z,16.60
2022-12-18T15:39:25.635Z,14.95
2022-12-18T15:42:22.278Z,14.10
2022-12-18T15:44:59.973Z,12.07
2022-12-18T15:47:33.819Z,13.38
2022-12-18T15:50:24.265Z,14.23
2022-12-18T15:52:59.499Z,14.80
2022-12-18T15:56:05.772Z,16.30
2022-12-18T15:58:43.150Z,15.73
2022-12-18T16:01:56.453Z,14.07
2022-12-18T16:04:38.004Z,13.13
2022-12-18T16:07:18.130Z,12.75
2022-12-18T16:10:02.306Z,14.30
2022-12-18T16:13:10.275Z,14.00
2022-12-18T16:16:05.880Z,11.13
2022-12-18T16:18:53.709Z,12.25
2022-12-18T16:21:58.051Z,8.45
2022-12-18T16:24:54.969Z,18.52
2022-12-18T16:27:44.560Z,7.97
2022-12-18T16:30:29.431Z,8.98
2022-12-18T16:33:50.504Z,9.13
2022-12-18T16:36:22.090Z,8.32
2022-12-18T16:39:13.002Z,8.07
2022-12-18T16:41:49.724Z,6.50
2022-12-18T16:44:26.351Z,7.13
2022-12-18T16:46:57.038Z,7.43
2022-12-18T16:52:01.852Z,7.18
2022-12-18T16:54:35.695Z,9.05
2022-12-18T16:57:06.970Z,7.03
2022-12-18T16:59:39.632Z,7.20
2022-12-18T17:02:23.377Z,8.05
2022-12-18T17:04:58.089Z,7.55
2022-12-18T17:10:00.471Z,8.43
2022-12-18T17:12:29.722Z,9.90
2022-12-18T17:15:01.636Z,7.95
2022-12-18T17:17:30.859Z,7.97
2022-12-18T17:20:00.076Z,7.80
2022-12-18T17:22:29.730Z,6.65
2022-12-18T17:25:24.650Z,9.52
2022-12-18T17:27:53.979Z,7.22
2022-12-18T17:30:25.726Z,8.02
2022-12-18T17:33:00.601Z,6.63
2022-12-18T17:35:32.544Z,8.15
2022-12-18T17:38:51.159Z,7.15
2022-12-18T17:41:34.847Z,7.25
2022-12-18T17:44:27.177Z,9.52
2022-12-18T17:47:48.776Z,7.50
2022-12-18T17:50:30.445Z,6.10
2022-12-18T17:53:05.499Z,7.00
2022-12-18T17:55:35.754Z,8.55
2022-12-18T17:58:09.556Z,7.25
2022-12-18T18:00:41.425Z,6.30
2022-12-18T18:03:10.812Z,9.50
2022-12-18T18:05:44.017Z,7.20
2022-12-18T18:08:15.832Z,9.02
2022-12-18T18:10:52.138Z,6.50
2022-12-18T18:13:50.438Z,7.90
2022-12-18T18:16:23.563Z,6.45
2022-12-18T18:18:59.337Z,6.32
2022-12-18T18:21:33.065Z,6.53
2022-12-18T18:24:17.127Z,6.70
2022-12-18T18:26:50.672Z,6.38
2022-12-18T18:29:42.302Z,8.57
2022-12-18T18:32:21.651Z,7.27
2022-12-18T18:34:56.891Z,7.63
2022-12-18T18:37:43.003Z,9.15
2022-12-18T18:40:35.346Z,7.88
2022-12-18T18:43:23.545Z,8.95
2022-12-18T18:46:29.252Z,7.50
2022-12-18T18:49:19.713Z,8.25
2022-12-18T18:52:21.169Z,10.70
2022-12-18T18:55:12.105Z,6.80
2022-12-18T18:57:59.698Z,8.15
2022-12-18T19:00:41.124Z,6.60
2022-12-18T19:03:16.400Z,9.13
2022-12-18T19:05:54.224Z,7.40
2022-12-18T19:08:37.060Z,8.57
2022-12-18T19:11:42.407Z,7.43
2022-12-18T19:14:15.139Z,7.20
2022-12-18T19:16:55.334Z,7.15
2022-12-18T19:19:59.511Z,7.25
2022-12-18T19:23:14.381Z,6.68
2022-12-18T19:26:27.685Z,8.75
2022-12-18T19:29:53.973Z,7.13
2022-12-18T19:36:28.998Z,8.68
2022-12-18T19:39:31.493Z,7.60
2022-12-18T19:42:35.267Z,7.65
2022-12-18T19:45:42.590Z,8.02
2022-12-18T19:48:30.054Z,9.43
2022-12-18T19:51:56.781Z,6.63
2022-12-18T19:55:05.587Z,8.20
2022-12-18T19:57:50.243Z,7.75
2022-12-18T20:01:20.530Z,8.00
2022-12-18T20:08:48.409Z,8.25
2022-12-18T20:11:32.660Z,7.20
2022-12-18T20:14:23.577Z,9.00
2022-12-18T20:20:36.817Z,8.50
2022-12-18T20:32:02.502Z,8.00
2022-12-18T20:39:28.969Z,9.38
2022-12-18T20:45:43.952Z,8.02
2022-12-18T20:48:28.393Z,9.65
2022-12-18T20:51:15.682Z,9.32
2022-12-18T20:54:11.785Z,9.30
2022-12-18T20:56:45.606Z,7.10
2022-12-18T21:00:08.267Z,7.30
2022-12-18T21:03:11.278Z,9.18
2022-12-18T21:06:07.128Z,7.55
2022-12-18T21:08:53.873Z,8.30
2022-12-18T21:11:42.589Z,5.20
2022-12-18T21:14:37.178Z,5.38
2022-12-18T21:17:40.130Z,6.10
2022-12-18T21:20:20.423Z,5.70
2022-12-18T21:22:57.355Z,7.22
2022-12-18T21:25:38.870Z,5.40
2022-12-18T21:28:28.397Z,5.30
2022-12-18T21:31:00.761Z,6.55
2022-12-18T21:33:33.303Z,5.95
2022-12-18T21:36:23.957Z,6.77
2022-12-18T21:39:36.312Z,6.43
2022-12-18T21:42:31.037Z,5.45
2022-12-18T21:45:04.206Z,6.63
2022-12-18T21:47:36.268Z,5.50
2022-12-18T21:50:29.845Z,4.90
2022-12-18T21:53:20.031Z,6.22
2022-12-18T21:56:04.949Z,5.22
2022-12-18T21:59:10.425Z,5.97
2022-12-18T22:01:53.854Z,5.03
2022-12-18T22:04:33.904Z,4.20
2022-12-18T22:07:18.104Z,4.97
2022-12-18T22:10:28.909Z,5.30
2022-12-18T22:13:30.620Z,5.00
2022-12-18T22:16:28.322Z,5.20
2022-12-18T22:19:41.103Z,3.90
2022-12-18T22:22:39.838Z,6.60
2022-12-18T22:29:10.415Z,3.72
2022-12-18T22:32:09.345Z,4.00
2022-12-18T22:35:15.879Z,4.35
2022-12-18T22:42:27.300Z,3.88
2022-12-18T22:45:36.305Z,3.50
2022-12-18T22:49:04.698Z,4.13
2022-12-18T22:53:10.581Z,5.05
2022-12-18T22:56:32.176Z,4.35
2022-12-18T22:59:49.968Z,4.82
2022-12-18T23:03:23.550Z,4.82
2022-12-18T23:06:50.812Z,5.30
2022-12-18T23:09:29.380Z,8.38
2022-12-18T23:15:44.630Z,4.78
2022-12-18T23:18:28.912Z,6.15
2022-12-18T23:21:17.174Z,5.25
2022-12-18T23:25:28.234Z,6.43
2022-12-18T23:28:41.277Z,7.90
2022-12-18T23:36:04.778Z,5.28
2022-12-18T23:39:33.527Z,6.90
2022-12-18T23:42:10.197Z,5.32
2022-12-18T23:45:23.043Z,5.95
2022-12-18T23:48:21.598Z,5.22
2022-12-18T23:51:32.374Z,5.57
2022-12-18T23:54:21.094Z,6.07
2022-12-18T23:57:11.652Z,3.93
